aviador You're here:

LFLB Decoded Metar

CHAMBERY in FRANCE
Report Time2017-08-19 01:30:00
UTC Time2017-08-19 01:53:13
Flight Rules vfr VFR
Wind030° at 09 kt
W.Decomp.*RWY 36: 7.8 kt HW 4.5 kt RCW
W.Rank030° ranks 13
Current wind is above 030° avg. (6.4)
Visibility9999 m
Phenomena:Mist
Clouds:Scattered 044 Hf
Broken 054 Hf
Scattered TCU 060 Hf
Broken 068 Hf
Expected CloudBase > 800 ft AGL from Temp-Dew spread
Ceiling5,400 ft
Temp19°C (ISA +6)
Dew Point17°C (88% RH)
AAT18.1°C
QNH1020 hPa
Density Alt1,460 ft
Elevation784 ft
Report Wrong Elevation
Raw Report
METAR LFLB 190130Z AUTO 03009KT 9999 SCT044 BKN054 BKN068 19/17 Q1020
TEMPO 4000 BR SCT060TCU BKN070=

Extra information for LFLB:More info

Metar Taf Metar & Taf Last 4 Metars F.Rules Stats Wind Profile Meteogram Temp Stats Airport Information Weather charts Add Link Nearby VenuesMetar ALERT Operation Metar Decoded Social comments